Latest Weather Observations for Redcliffe

IDQ60901

Issued at 2:11 pm EST Wednesday 5 August 2015 (issued every 10 minutes, with the page automatically refreshed every 10 minutes)

About weather observations | Map of Brisbane area stations | Latest observations for Brisbane area | Other Formats
Station Details ID: 040958 Name: REDCLIFFE Lat: -27.22 Lon: 153.09 Height: 12.6 m
Data from the previous 72 hours. | See also: Recent months at Redcliffe
Date/Time
EST
Tmp

°C
App
Tmp
°C
Dew
Point
°C
Rel
Hum
%
Delta-T

°C
Wind Press
QNH
hPa
Press
MSL
hPa
Rain
since
9 am
mm
Dir
 
Spd
km/h
Gust
km/h
Spd
kts
Gust
kts
05/02:00pm 18.0 12.2 -1.8 26 8.3 WSW 19 28 10 15 1013.6 1013.6 0.0
05/01:30pm 18.2 12.2 -1.6 26 8.3 SW 20 32 11 17 1013.7 1013.7 0.0
05/01:00pm 17.5 11.0 -2.2 26 8.1 WSW 22 39 12 21 1013.9 1013.9 0.0
05/12:30pm 16.8 10.6 -3.3 25 8.0 W 20 30 11 16 1014.4 1014.4 0.0
05/12:00pm 16.2 10.5 -0.5 32 7.0 W 19 30 10 16 1015.1 1015.1 0.0
05/11:30am 15.5 10.2 -0.7 33 6.8 W 17 28 9 15 1015.5 1015.5 0.0
05/11:00am 14.5 9.1 -1.2 34 6.4 W 17 22 9 12 1016.2 1016.2 0.0
05/10:30am 14.4 9.0 -1.6 33 6.5 W 17 22 9 12 1016.5 1016.5 0.0
05/10:00am 13.3 7.7 0.0 40 5.5 WSW 19 28 10 15 1016.7 1016.7 0.0
05/09:30am 12.7 8.1 -0.9 39 5.5 W 13 19 7 10 1017.1 1017.1 0.0
05/09:00am 12.1 7.6 -0.1 43 5.0 WSW 13 19 7 10 1016.9 1016.9 0.0
05/08:30am 11.2 7.1 0.0 46 4.6 SW 11 15 6 8 1017.0 1017.0 0.0
05/08:00am 9.9 6.4 1.3 55 3.6 WSW 9 11 5 6 1016.7 1016.7 0.0
05/07:30am 8.6 5.0 0.3 56 3.3 WSW 9 11 5 6 1016.7 1016.7 0.0
05/07:00am 7.0 3.9 0.0 61 2.7 W 6 9 3 5 1016.8 1016.8 0.0
05/06:30am 7.3 3.9 -0.6 57 3.0 WSW 7 13 4 7 1016.5 1016.5 0.0
05/06:00am 7.4 4.0 -0.8 56 3.1 WSW 7 9 4 5 1016.4 1016.4 0.0
05/05:30am 7.7 4.2 -1.0 54 3.3 W 7 11 4 6 1016.3 1016.3 0.0
05/05:00am 8.1 5.3 -0.6 54 3.4 WNW 4 7 2 4 1016.2 1016.2 0.0
05/04:30am 7.8 4.6 -0.2 57 3.1 WSW 6 7 3 4 1016.2 1016.2 0.0
05/04:00am 8.4 5.2 -0.4 54 3.4 NW 6 9 3 5 1016.3 1016.3 0.0
05/03:30am 9.0 5.7 0.2 54 3.5 N 7 9 4 5 1016.2 1016.2 0.0
05/03:00am 9.7 5.7 0.3 52 3.8 WNW 11 15 6 8 1016.5 1016.5 0.0
05/02:30am 10.2 7.0 0.5 51 4.0 W 7 13 4 7 1016.6 1016.6 0.0
05/02:00am 10.3 5.6 0.9 52 3.9 WNW 15 28 8 15 1016.9 1016.9 0.0
05/01:30am 10.9 5.9 1.4 52 4.0 WNW 17 26 9 14 1017.3 1017.3 0.0
05/01:00am 11.3 6.4 1.8 52 4.0 WNW 17 28 9 15 1017.6 1017.6 0.0
05/12:30am 11.8 6.9 1.7 50 4.3 W 17 26 9 14 1017.3 1017.3 0.0
05/12:00am 12.5 5.1 2.1 49 4.5 W 30 41 16 22 1017.5 1017.5 0.0
 
Date/Time
EST
Tmp

°C
App
Tmp
°C
Dew
Point
°C
Rel
Hum
%
Delta-T

°C
Wind Press
QNH
hPa
Press
MSL
hPa
Rain
since
9 am
mm
Dir
 
Spd
km/h
Gust
km/h
Spd
kts
Gust
kts
04/11:30pm 13.0 6.5 2.5 49 4.6 WSW 26 39 14 21 1017.2 1017.2 0.0
04/11:00pm 13.2 7.1 3.0 50 4.5 WSW 24 33 13 18 1017.4 1017.4 0.0
04/10:30pm 13.6 7.9 2.8 48 4.8 WSW 22 33 12 18 1017.7 1017.7 0.0
04/10:00pm 14.3 9.4 2.2 44 5.3 WSW 17 28 9 15 1017.7 1017.7 0.0
04/09:30pm 14.9 10.4 2.4 43 5.6 WSW 15 22 8 12 1017.4 1017.4 0.0
04/09:00pm 15.3 11.7 4.9 50 4.9 W 13 20 7 11 1017.4 1017.4 0.0
04/08:30pm 15.1 12.8 11.7 80 1.8 WSW 15 22 8 12 1017.3 1017.3 0.0
04/08:00pm 14.9 14.0 11.5 80 1.8 SE 7 9 4 5 1017.1 1017.1 0.0
04/07:30pm 15.7 14.1 11.7 77 2.2 SE 11 13 6 7 1017.2 1017.2 0.0
04/07:00pm 16.5 14.9 11.6 73 2.7 SE 11 15 6 8 1017.2 1017.2 0.0
04/06:30pm 16.9 14.6 11.8 72 2.8 ESE 15 17 8 9 1017.1 1017.1 0.0
04/06:00pm 17.1 14.8 11.6 70 3.0 SE 15 19 8 10 1016.8 1016.8 0.0
04/05:30pm 17.3 14.1 11.1 67 3.3 SE 19 20 10 11 1016.8 1016.8 0.0
04/05:00pm 17.6 14.2 10.7 64 3.7 SE 19 22 10 12 1016.8 1016.8 0.0
04/04:30pm 18.2 14.4 11.3 64 3.8 SE 22 26 12 14 1016.7 1016.7 0.0
04/04:00pm 18.4 14.8 10.7 61 4.1 SE 20 24 11 13 1016.7 1016.7 0.0
04/03:30pm 18.7 14.3 10.5 59 4.4 SE 24 28 13 15 1016.7 1016.7 0.0
04/03:00pm 19.2 15.3 10.7 58 4.6 SE 22 26 12 14 1016.7 1016.7 0.0
04/02:30pm 19.4 15.8 10.4 56 4.8 SE 20 26 11 14 1017.1 1017.1 0.0
04/02:00pm 19.2 15.6 9.9 55 5.0 SE 19 22 10 12 1017.2 1017.2 0.0
04/01:30pm 19.4 15.8 9.9 54 5.1 SSE 19 28 10 15 1017.5 1017.5 0.0
04/01:00pm 19.6 15.6 9.2 51 5.5 S 20 24 11 13 1017.7 1017.7 0.0
04/12:30pm 19.7 15.5 7.4 45 6.3 S 19 22 10 12 1017.8 1017.8 0.0
04/12:00pm 20.1 16.1 8.1 46 6.2 S 19 30 10 16 1018.4 1018.4 0.0
04/11:30am 19.3 15.3 8.3 49 5.7 SSW 19 28 10 15 1019.0 1019.0 0.0
04/11:00am 19.7 14.8 8.4 48 5.9 S 24 32 13 17 1019.3 1019.3 0.0
04/10:30am 19.5 15.1 8.8 50 5.6 S 22 30 12 16 1019.6 1019.6 0.0
04/10:00am 19.4 14.6 7.5 46 6.1 SSW 22 32 12 17 1019.5 1019.5 0.0
04/09:30am 19.3 15.2 7.7 47 5.9 S 19 28 10 15 1019.7 1019.7 0.0
04/09:00am 18.7 14.8 7.2 47 5.8 SSW 17 26 9 14 1019.4 1019.4 -
04/08:30am 17.7 14.1 6.9 49 5.4 SSW 15 22 8 12 1019.1 1019.1 -
04/08:00am 16.4 12.7 6.2 51 5.0 SW 15 22 8 12 1019.1 1019.1 -
04/07:30am 15.8 12.1 6.3 53 4.6 SW 15 20 8 11 1018.6 1018.6 -
04/07:00am 14.8 11.5 6.4 57 4.0 WSW 13 17 7 9 1018.7 1018.7 -
04/06:30am 14.6 11.7 6.4 58 4.0 W 11 13 6 7 1018.4 1018.4 -
04/06:00am 14.4 11.1 6.3 58 3.9 W 13 17 7 9 1018.1 1018.1 -
04/05:30am 14.3 11.3 5.9 57 4.0 WSW 11 15 6 8 1017.7 1017.7 -
04/05:00am 14.3 11.6 5.4 55 4.2 W 9 13 5 7 1017.4 1017.4 -
04/04:30am 14.0 10.8 5.1 55 4.2 SW 11 15 6 8 1016.9 1016.9 -
04/04:00am 14.1 11.2 4.4 52 4.5 WSW 9 15 5 8 1016.8 1016.8 -
04/03:30am 14.5 11.1 4.2 50 4.7 WSW 11 15 6 8 1016.7 1016.7 -
04/03:00am 15.0 12.1 4.4 49 4.9 W 9 13 5 7 1016.6 1016.6 0.0
04/02:30am 15.1 11.7 4.2 48 5.0 W 11 15 6 8 1017.1 1017.1 -
04/02:00am 14.4 11.2 7.0 61 3.6 SSW 13 15 7 8 1016.5 1016.5 -
04/01:30am 15.1 12.2 6.7 57 4.1 WSW 11 13 6 7 1016.9 1016.9 -
04/01:00am 15.5 13.4 8.3 62 3.6 SW 9 11 5 6 1016.9 1016.9 -
04/12:30am 15.8 12.9 8.1 60 3.9 WSW 13 19 7 10 1016.9 1016.9 -
04/12:00am 16.3 14.3 8.5 60 4.0 WSW 9 15 5 8 1016.6 1016.6 -
 
Date/Time
EST
Tmp

°C
App
Tmp
°C
Dew
Point
°C
Rel
Hum
%
Delta-T

°C
Wind Press
QNH
hPa
Press
MSL
hPa
Rain
since
9 am
mm
Dir
 
Spd
km/h
Gust
km/h
Spd
kts
Gust
kts
03/11:30pm 16.0 14.0 8.7 62 3.7 SW 9 13 5 7 1017.0 1017.0 -
03/11:00pm 17.0 14.7 8.9 59 4.2 WSW 11 15 6 8 1017.2 1017.2 -
03/10:30pm 17.1 15.8 10.0 63 3.7 SW 7 11 4 6 1017.0 1017.0 -
03/10:00pm 17.3 15.6 10.0 62 3.9 WSW 9 13 5 7 1016.8 1016.8 -
03/09:30pm 18.4 17.4 12.2 67 3.4 NW 9 13 5 7 1016.7 1016.7 -
03/09:00pm 18.0 18.8 14.7 81 1.9 WSW 4 9 2 5 1016.6 1016.6 0.0
03/08:30pm 18.0 19.4 15.3 84 1.6 S 2 7 1 4 1016.5 1016.5 -
03/08:00pm 18.5 19.1 15.4 82 1.8 ENE 6 11 3 6 1016.3 1016.3 -
03/07:30pm 18.9 19.6 15.6 81 1.9 S 6 9 3 5 1016.0 1016.0 -
03/07:00pm 19.4 19.2 15.7 79 2.2 NNW 11 13 6 7 1016.0 1016.0 -
03/06:30pm 19.9 18.7 16.0 78 2.3 N 17 22 9 12 1015.7 1015.7 -
03/06:00pm 20.1 17.5 15.9 77 2.5 N 24 28 13 15 1015.1 1015.1 -
03/05:30pm 20.4 18.4 15.6 74 2.9 NNE 20 26 11 14 1014.8 1014.8 -
03/05:00pm 21.0 18.6 15.5 71 3.3 NNE 22 26 12 14 1014.5 1014.5 -
03/04:30pm 21.7 19.9 15.5 68 3.7 N 19 22 10 12 1014.2 1014.2 -
03/04:00pm 22.7 20.7 15.5 64 4.3 NNE 20 26 11 14 1014.2 1014.2 -
03/03:30pm 23.5 21.7 15.5 60 4.8 NNE 19 22 10 12 1014.3 1014.3 -
03/03:00pm 23.7 23.1 15.7 61 4.8 N 13 17 7 9 1014.5 1014.5 -
03/02:30pm 23.7 - 15.5 60 4.9 - - - - - 1014.6 1014.6 -
03/02:00pm 24.1 20.8 13.9 53 6.0 NE 24 28 13 15 1014.8 1014.8 -
03/01:30pm 25.2 22.4 13.1 47 7.0 NE 20 26 11 14 1015.2 1015.2 -
03/01:00pm 24.6 22.5 12.5 46 6.9 ENE 15 19 8 10 1015.8 1015.8 -
03/12:30pm 23.8 21.4 12.8 50 6.3 NE 17 17 9 9 1016.3 1016.3 -
03/10:00am 20.0 18.8 13.9 68 3.5 N 13 19 7 10 1019.2 1019.2 0.0
03/09:30am 19.2 17.7 14.2 73 2.9 NNW 15 19 8 10 1019.6 1019.6 0.0
03/09:00am 17.9 16.4 13.2 74 2.6 NNW 13 19 7 10 1019.3 1019.3 0.0
03/08:30am 17.0 15.4 12.9 77 2.3 NNW 13 17 7 9 1019.3 1019.3 0.0
03/08:00am 16.4 15.3 13.1 81 1.8 NNW 11 15 6 8 1019.2 1019.2 0.0
03/07:30am 15.9 14.3 12.8 82 1.7 NNW 13 17 7 9 1018.6 1018.6 0.0
03/07:00am 15.6 14.1 13.1 85 1.4 NNW 13 17 7 9 1018.6 1018.6 0.0
03/06:30am 15.2 14.1 13.1 87 1.2 N 11 15 6 8 1018.4 1018.4 0.0
03/06:00am 15.2 14.5 13.1 87 1.2 NNW 9 11 5 6 1018.4 1018.4 0.0
03/05:30am 15.1 14.3 13.0 87 1.2 N 9 11 5 6 1018.2 1018.2 0.0
03/05:00am 15.0 14.6 12.9 87 1.2 N 7 9 4 5 1018.0 1018.0 0.0
03/04:30am 14.8 14.2 12.3 85 1.4 NNW 7 9 4 5 1018.0 1018.0 0.0
03/04:00am 15.1 14.1 12.4 84 1.5 NNW 9 11 5 6 1018.0 1018.0 0.0
03/03:30am 15.6 14.4 12.7 83 1.6 NNW 11 15 6 8 1018.0 1018.0 0.0
03/03:00am 15.6 14.4 12.7 83 1.6 NNW 11 15 6 8 1018.2 1018.2 0.0
03/02:30am 15.8 14.6 12.9 83 1.6 NNW 11 17 6 9 1018.4 1018.4 0.0
03/02:00am 16.1 14.2 13.0 82 1.7 N 15 19 8 10 1018.6 1018.6 0.0
03/01:30am 16.2 14.3 13.1 82 1.7 N 15 17 8 9 1018.9 1018.9 0.0
03/01:00am 16.4 14.5 12.9 80 1.9 NNW 15 20 8 11 1019.2 1019.2 0.0
03/12:30am 16.5 14.3 13.2 81 1.8 N 17 20 9 11 1019.6 1019.6 0.0
03/12:00am 16.4 15.0 13.3 82 1.7 N 13 17 7 9 1019.7 1019.7 0.0
 
Date/Time
EST
Tmp

°C
App
Tmp
°C
Dew
Point
°C
Rel
Hum
%
Delta-T

°C
Wind Press
QNH
hPa
Press
MSL
hPa
Rain
since
9 am
mm
Dir
 
Spd
km/h
Gust
km/h
Spd
kts
Gust
kts
02/11:30pm 16.5 15.5 13.4 82 1.7 NNW 11 13 6 7 1019.8 1019.8 0.0
02/11:00pm 16.4 15.4 13.5 83 1.6 NNW 11 13 6 7 1020.0 1020.0 0.0
02/10:30pm 16.7 15.8 13.8 83 1.6 NNW 11 15 6 8 1019.9 1019.9 0.0
02/10:00pm 17.0 16.2 13.9 82 1.8 NNW 11 15 6 8 1020.2 1020.2 0.0
02/09:30pm 17.7 16.3 14.4 81 1.9 NNW 15 22 8 12 1020.1 1020.1 0.0
02/09:00pm 17.5 16.6 14.8 84 1.6 NNW 13 22 7 12 1020.0 1020.0 0.0
02/08:30pm 17.6 15.9 14.7 83 1.7 N 17 26 9 14 1019.9 1019.9 0.0
02/08:00pm 18.2 16.3 15.1 82 1.8 N 19 24 10 13 1019.8 1019.8 0.0
02/07:30pm 18.6 16.5 15.1 80 2.0 N 20 26 11 14 1019.9 1019.9 0.0
02/07:00pm 19.0 16.9 15.1 78 2.3 N 20 26 11 14 1019.7 1019.7 0.0
02/06:30pm 19.2 16.2 14.9 76 2.5 N 24 28 13 15 1019.4 1019.4 0.0
02/06:00pm 19.1 16.0 14.6 75 2.6 N 24 28 13 15 1019.3 1019.3 0.0
02/05:30pm 19.6 16.1 14.6 73 2.9 N 26 28 14 15 1019.0 1019.0 0.0
02/05:00pm 20.2 17.4 14.3 69 3.4 NNE 22 26 12 14 1018.8 1018.8 0.0
02/04:30pm 20.9 17.6 14.1 65 3.9 NNE 24 28 13 15 1018.7 1018.7 0.0
02/04:00pm 21.5 17.8 13.9 62 4.4 NNE 26 30 14 16 1018.7 1018.7 0.0
02/03:30pm 22.3 19.2 14.4 61 4.6 NE 24 28 13 15 1018.9 1018.9 0.0
02/03:00pm 22.8 18.9 14.4 59 4.9 NE 28 30 15 16 1019.0 1019.0 0.0
02/02:30pm 22.6 20.0 13.9 58 5.1 NE 20 24 11 13 1019.3 1019.3 0.0

Latest Capital City Observations: Canberra | Sydney | Melbourne | Brisbane | Adelaide | Perth | Hobart | Darwin

Other Formats:

Comma delimited format used in spreadsheet applications
http://www.bom.gov.au/fwo/IDQ60901/IDQ60901.95591.axf

JavaScript Object Notation format (JSON) in row-major order
http://www.bom.gov.au/fwo/IDQ60901/IDQ60901.95591.json